Nearby METAR Reports

 

KOJC - Olathe/Executive, Kansas, USA
Distance from station: S 9mi, 15km
Updated: Sun, 25-Feb-2018 12:53am CST
Clear
Clear
 Wind from W
Wind: W 9 mph , 15 km/h
Temperature: 30°F , -1°C
Wind Chill: 22°F , -6°C
Dew Point: 28°F , -2°C
Humidity: 93%
Barometer: 29.96 inHg , 1014.6 hPa
Clouds: Clear
Visibility: 10 miles , 16 km
2018/02/25 06:53 KOJC 250653Z AUTO 26008KT 10SM CLR M01/M02 A2996 RMK AO2 SLP152 T10061017
KMKC - Kansas City/Dntn, Missouri, USA
Distance from station: NE 12mi, 20km
Updated: Sun, 25-Feb-2018 12:54am CST
Clear
Clear
 Wind from WSW
Wind: WSW 9 mph , 15 km/h
Temperature: 34°F , 1°C
Wind Chill: 27°F , -3°C
Dew Point: 27°F , -3°C
Humidity: 75%
Barometer: 29.95 inHg , 1014.2 hPa
Clouds: Clear
Visibility: 10 miles , 16 km
2018/02/25 06:54 KMKC 250654Z 24008KT 10SM CLR 01/M03 A2995 RMK AO2 SLP146 T00111028
 
KIXD - Olathe/Industria, Kansas, USA
Distance from station: SSW 14mi, 22km
Updated: Sun, 25-Feb-2018 12:53am CST
Clear
Clear
 Wind from SW
Wind: SW 8 mph , 13 km/h
Temperature: 30°F , -1°C
Wind Chill: 22°F , -6°C
Dew Point: 28°F , -2°C
Humidity: 93%
Barometer: 29.97 inHg , 1014.9 hPa
Clouds: Clear
Visibility: 10 miles , 16 km
2018/02/25 06:53 KIXD 250653Z AUTO 23007KT 10SM CLR M01/M02 A2997 RMK AO2 SLP156 T10111022
KLXT - Lees Summit Muni, Missouri, USA
Distance from station: E 21mi, 33km
Updated: Sun, 25-Feb-2018 12:53am CST
Clear
Clear
 Wind from WSW
Wind: WSW 13 mph , 20 km/h
Temperature: 32°F , 0°C
Wind Chill: 22°F , -6°C
Dew Point: 30°F , -1°C
Humidity: 93%
Barometer: 29.95 inHg , 1014.2 hPa
Clouds: Clear
Visibility: 10 miles , 16 km
2018/02/25 06:53 KLXT 250653Z AUTO 24011KT 10SM CLR 00/M01 A2995 RMK AO2 SLP149 T00001011 $
 
KMCI - Kansas City/Intl, Missouri, USA
Distance from station: N 22mi, 35km
Updated: Sun, 25-Feb-2018 12:53am CST
Clear
Clear
 Wind from W
Wind: W 7 mph , 11 km/h
Temperature: 30°F , -1°C
Wind Chill: 23°F , -5°C
Dew Point: 27°F , -3°C
Humidity: 86%
Barometer: 29.94 inHg , 1013.9 hPa
Clouds: Clear
Visibility: 10 miles , 16 km
2018/02/25 06:53 KMCI 250653Z 26006KT 10SM CLR M01/M03 A2994 RMK AO2 SLP143 T10061028
KLWC - Lawrence, Kansas, USA
Distance from station: W 25mi, 40km
Updated: Sun, 25-Feb-2018 12:52am CST
Clear
Clear
 Wind from W
Wind: W 10 mph , 17 km/h
Temperature: 34°F , 1°C
Wind Chill: 26°F , -3°C
Dew Point: 27°F , -3°C
Humidity: 75%
Barometer: 29.96 inHg , 1014.6 hPa
Clouds: Clear
Visibility: 10 miles , 16 km
2018/02/25 06:52 KLWC 250652Z AUTO 26009KT 10SM CLR 01/M03 A2996 RMK AO2 SLP152 T00061028 $
 
KGPH - Mosby, Missouri, USA
Distance from station: NE 34mi, 54km
Updated: Sun, 25-Feb-2018 1:15am CST
Clear
Clear
 Wind from W
Wind: W 9 mph , 15 km/h
Temperature: 34°F , 1°C
Wind Chill: 27°F , -3°C
Dew Point: 28°F , -2°C
Humidity: 81%
Barometer: 29.94 inHg , 1013.9 hPa
Clouds: Clear
Visibility: 10 miles , 16 km
2018/02/25 07:15 KGPH 250715Z AUTO 26008KT 10SM CLR 01/M02 A2994 RMK AO2
KTOP - Topeka, Kansas, USA
Distance from station: W 48mi, 77km
Updated: Sun, 25-Feb-2018 12:53am CST
Clear
Clear
 Wind from W
Wind: W 7 mph , 11 km/h
Temperature: 34°F , 1°C
Wind Chill: 28°F , -2°C
Dew Point: 28°F , -2°C
Humidity: 81%
Barometer: 29.98 inHg , 1015.2 hPa
Clouds: Clear
Visibility: 10 miles , 16 km
2018/02/25 06:53 KTOP 250653Z AUTO 26006KT 10SM CLR 01/M02 A2998 RMK AO2 SLP156 T00061022
 
KFOE - Topeka/Forbes, Kansas, USA
Distance from station: W 48mi, 78km
Updated: Sun, 25-Feb-2018 12:53am CST
Clear
Clear
 Wind from WSW
Wind: WSW 10 mph , 17 km/h
Temperature: 30°F , -1°C
Wind Chill: 21°F , -6°C
Dew Point: 27°F , -3°C
Humidity: 86%
Barometer: 29.97 inHg , 1014.9 hPa
Clouds: Clear
Visibility: 10 miles , 16 km
2018/02/25 06:53 KFOE 250653Z AUTO 25009KT 10SM CLR M01/M03 A2997 RMK AO2 SLP157 T10111033